createdAt,value
2023-04-09T00:00:36.099Z,100.00
2023-04-09T00:01:38.006Z,100.00
2023-04-09T00:02:40.311Z,100.00
2023-04-09T00:03:42.456Z,100.00
2023-04-09T00:04:44.536Z,100.00
2023-04-09T00:05:47.616Z,100.00
2023-04-09T00:06:49.711Z,100.00
2023-04-09T00:07:51.587Z,100.00
2023-04-09T00:08:53.828Z,100.00
2023-04-09T00:09:56.034Z,100.00
2023-04-09T00:10:59.129Z,100.00
2023-04-09T00:12:01.330Z,100.00
2023-04-09T00:13:04.053Z,100.00
2023-04-09T00:14:05.967Z,100.00
2023-04-09T00:15:13.039Z,100.00
2023-04-09T00:16:12.960Z,100.00
2023-04-09T00:17:14.882Z,100.00
2023-04-09T00:18:16.994Z,100.00
2023-04-09T00:19:21.859Z,100.00
2023-04-09T00:20:24.279Z,100.00
2023-04-09T00:21:27.467Z,100.00
2023-04-09T00:22:30.047Z,100.00
2023-04-09T00:23:31.952Z,100.00
2023-04-09T00:24:34.005Z,100.00
2023-04-09T00:25:36.205Z,100.00
2023-04-09T00:26:38.295Z,100.00
2023-04-09T00:27:40.355Z,100.00
2023-04-09T00:28:42.381Z,100.00
2023-04-09T00:29:44.644Z,100.00
2023-04-09T00:30:46.845Z,100.00
2023-04-09T00:31:48.833Z,100.00
2023-04-09T00:32:50.788Z,100.00
2023-04-09T00:33:52.742Z,100.00
2023-04-09T00:34:54.613Z,100.00
2023-04-09T00:35:56.589Z,100.00
2023-04-09T00:36:58.924Z,100.00
2023-04-09T00:38:00.985Z,100.00
2023-04-09T00:39:04.086Z,100.00
2023-04-09T00:40:07.333Z,100.00
2023-04-09T00:41:09.648Z,100.00
2023-04-09T00:42:11.741Z,100.00
2023-04-09T00:43:13.725Z,100.00
2023-04-09T00:44:15.626Z,100.00
2023-04-09T00:45:17.709Z,100.00
2023-04-09T00:46:19.974Z,100.00
2023-04-09T00:47:21.962Z,100.00
2023-04-09T00:48:24.436Z,100.00
2023-04-09T00:49:26.909Z,100.00
2023-04-09T00:50:29.267Z,100.00
2023-04-09T00:51:31.252Z,100.00
2023-04-09T00:52:33.716Z,100.00
2023-04-09T00:53:36.487Z,100.00
2023-04-09T00:54:38.404Z,100.00
2023-04-09T00:55:41.018Z,100.00
2023-04-09T00:56:43.509Z,100.00
2023-04-09T00:57:45.762Z,100.00
2023-04-09T00:58:48.301Z,100.00
2023-04-09T00:59:50.510Z,100.00
2023-04-09T01:00:52.789Z,100.00
2023-04-09T01:01:55.628Z,100.00
2023-04-09T01:02:59.675Z,100.00
2023-04-09T01:04:02.325Z,100.00
2023-04-09T01:05:05.838Z,100.00
2023-04-09T01:06:23.739Z,100.00
2023-04-09T01:07:55.441Z,100.00
2023-04-09T01:09:02.589Z,100.00
2023-04-09T01:10:20.532Z,100.00
2023-04-09T01:11:32.008Z,100.00
2023-04-09T01:13:57.479Z,100.00
2023-04-09T01:15:08.783Z,100.00
2023-04-09T01:16:14.208Z,100.00
2023-04-09T01:18:39.756Z,100.00
2023-04-09T01:19:45.417Z,100.00
2023-04-09T01:20:51.385Z,100.00
2023-04-09T01:21:55.749Z,100.00
2023-04-09T01:23:16.945Z,100.00
2023-04-09T01:24:38.084Z,100.00
2023-04-09T01:26:00.870Z,100.00
2023-04-09T01:27:07.788Z,100.00
2023-04-09T01:28:19.317Z,100.00
2023-04-09T01:29:23.705Z,100.00
2023-04-09T01:30:27.642Z,100.00
2023-04-09T01:31:33.368Z,100.00
2023-04-09T01:32:38.271Z,100.00
2023-04-09T01:33:42.601Z,100.00
2023-04-09T01:34:46.514Z,100.00
2023-04-09T01:35:51.377Z,100.00
2023-04-09T01:36:57.673Z,100.00
2023-04-09T01:38:01.095Z,100.00
2023-04-09T01:39:05.723Z,100.00
2023-04-09T01:40:09.147Z,100.00
2023-04-09T01:41:16.601Z,100.00
2023-04-09T01:42:20.048Z,100.00
2023-04-09T01:43:23.553Z,100.00
2023-04-09T01:44:26.961Z,100.00
2023-04-09T01:45:29.756Z,100.00
2023-04-09T01:46:33.377Z,100.00
2023-04-09T01:47:37.289Z,100.00
2023-04-09T01:48:39.906Z,100.00
2023-04-09T01:49:43.352Z,100.00
2023-04-09T01:50:46.015Z,100.00
2023-04-09T01:51:48.381Z,100.00
2023-04-09T01:52:50.963Z,100.00
2023-04-09T01:53:52.982Z,100.00
2023-04-09T01:54:55.491Z,100.00
2023-04-09T01:56:00.796Z,100.00
2023-04-09T01:57:02.983Z,100.00
2023-04-09T01:58:05.004Z,100.00
2023-04-09T01:59:06.996Z,100.00
2023-04-09T02:00:11.250Z,100.00
2023-04-09T02:01:16.934Z,100.00
2023-04-09T02:02:22.889Z,100.00
2023-04-09T02:03:31.753Z,100.00
2023-04-09T02:04:40.658Z,100.00
2023-04-09T02:05:46.252Z,100.00
2023-04-09T02:06:54.750Z,100.00
2023-04-09T02:07:59.443Z,100.00
2023-04-09T02:09:04.155Z,100.00
2023-04-09T02:10:09.360Z,100.00
2023-04-09T02:11:13.176Z,100.00
2023-04-09T02:12:17.885Z,100.00
2023-04-09T02:13:21.014Z,100.00
2023-04-09T02:14:27.033Z,100.00
2023-04-09T02:15:31.101Z,100.00
2023-04-09T02:16:34.205Z,100.00
2023-04-09T02:17:36.813Z,100.00
2023-04-09T02:18:38.786Z,100.00
2023-04-09T02:19:42.995Z,100.00
2023-04-09T02:20:45.241Z,100.00
2023-04-09T02:21:47.096Z,100.00
2023-04-09T02:22:49.696Z,100.00
2023-04-09T02:23:51.854Z,100.00
2023-04-09T02:24:53.701Z,100.00
2023-04-09T02:25:55.897Z,100.00
2023-04-09T02:26:57.899Z,100.00
2023-04-09T02:28:00.759Z,100.00
2023-04-09T02:29:02.785Z,100.00
2023-04-09T02:30:05.760Z,100.00
2023-04-09T02:31:07.829Z,100.00
2023-04-09T02:32:12.004Z,100.00
2023-04-09T02:33:14.018Z,100.00
2023-04-09T02:34:16.004Z,100.00
2023-04-09T02:35:18.149Z,100.00
2023-04-09T02:36:21.793Z,100.00
2023-04-09T02:37:23.851Z,100.00
2023-04-09T02:38:26.025Z,100.00
2023-04-09T02:39:27.985Z,100.00
2023-04-09T02:40:29.971Z,100.00
2023-04-09T02:41:31.955Z,100.00
2023-04-09T02:42:34.685Z,100.00
2023-04-09T02:43:37.164Z,100.00
2023-04-09T02:44:39.525Z,100.00
2023-04-09T02:45:41.952Z,100.00
2023-04-09T02:46:45.682Z,100.00
2023-04-09T02:47:47.725Z,100.00
2023-04-09T02:48:49.872Z,100.00
2023-04-09T02:49:52.048Z,100.00
2023-04-09T02:50:54.220Z,100.00
2023-04-09T02:51:56.192Z,100.00
2023-04-09T02:52:58.053Z,100.00
2023-04-09T02:53:59.920Z,100.00
2023-04-09T02:55:01.909Z,100.00
2023-04-09T02:56:05.402Z,100.00
2023-04-09T02:57:07.373Z,100.00
2023-04-09T02:58:09.252Z,100.00
2023-04-09T02:59:11.205Z,100.00
2023-04-09T03:00:14.350Z,100.00
2023-04-09T03:01:16.455Z,100.00
2023-04-09T03:02:18.893Z,100.00
2023-04-09T03:03:21.004Z,100.00
2023-04-09T03:04:23.142Z,100.00
2023-04-09T03:05:25.536Z,100.00
2023-04-09T03:06:27.669Z,100.00
2023-04-09T03:07:29.538Z,100.00
2023-04-09T03:08:31.393Z,100.00
2023-04-09T03:09:33.405Z,100.00
2023-04-09T03:10:35.761Z,100.00
2023-04-09T03:11:37.756Z,100.00
2023-04-09T03:12:39.783Z,100.00
2023-04-09T03:13:41.781Z,100.00
2023-04-09T03:14:44.738Z,100.00
2023-04-09T03:15:52.837Z,100.00
2023-04-09T03:16:54.921Z,100.00
2023-04-09T03:17:56.822Z,100.00
2023-04-09T03:18:58.881Z,100.00
2023-04-09T03:20:00.901Z,100.00
2023-04-09T03:21:07.903Z,100.00
2023-04-09T03:22:10.993Z,100.00
2023-04-09T03:23:14.079Z,100.00
2023-04-09T03:24:16.256Z,100.00
2023-04-09T03:25:18.366Z,100.00
2023-04-09T03:26:20.337Z,100.00
2023-04-09T03:27:22.368Z,100.00
2023-04-09T03:28:24.357Z,100.00
2023-04-09T03:29:26.422Z,100.00
2023-04-09T03:30:29.003Z,100.00
2023-04-09T03:31:31.952Z,100.00
2023-04-09T03:32:33.939Z,100.00
2023-04-09T03:33:37.786Z,100.00
2023-04-09T03:34:39.683Z,100.00
2023-04-09T03:35:41.688Z,100.00
2023-04-09T03:36:43.745Z,100.00
2023-04-09T03:37:45.631Z,100.00
2023-04-09T03:38:48.722Z,100.00
2023-04-09T03:39:50.731Z,100.00
2023-04-09T03:40:52.800Z,100.00
2023-04-09T03:41:54.654Z,100.00
2023-04-09T03:42:56.648Z,100.00
2023-04-09T03:43:58.509Z,100.00
2023-04-09T03:45:00.377Z,100.00
2023-04-09T03:46:17.199Z,100.00
2023-04-09T03:47:19.202Z,100.00
2023-04-09T03:48:21.279Z,100.00
2023-04-09T03:49:23.156Z,100.00
2023-04-09T03:50:26.144Z,100.00
2023-04-09T03:51:28.116Z,100.00
2023-04-09T03:52:29.997Z,100.00
2023-04-09T03:53:32.168Z,100.00
2023-04-09T03:54:34.038Z,100.00
2023-04-09T03:55:38.404Z,100.00
2023-04-09T03:56:40.411Z,100.00
2023-04-09T03:57:43.843Z,100.00
2023-04-09T03:58:45.841Z,100.00
2023-04-09T03:59:47.703Z,100.00
2023-04-09T04:00:49.757Z,100.00
2023-04-09T04:01:52.338Z,100.00
2023-04-09T04:02:54.614Z,100.00
2023-04-09T04:03:56.733Z,100.00
2023-04-09T04:04:59.717Z,100.00
2023-04-09T04:06:03.368Z,100.00
2023-04-09T04:07:05.542Z,100.00
2023-04-09T04:08:07.531Z,100.00
2023-04-09T04:09:09.888Z,100.00
2023-04-09T04:10:12.144Z,100.00
2023-04-09T04:11:14.220Z,100.00
2023-04-09T04:12:16.097Z,100.00
2023-04-09T04:13:18.035Z,100.00
2023-04-09T04:14:20.011Z,100.00
2023-04-09T04:15:21.897Z,100.00
2023-04-09T04:16:23.877Z,100.00
2023-04-09T04:17:25.881Z,100.00
2023-04-09T04:18:27.869Z,100.00
2023-04-09T04:19:30.061Z,100.00
2023-04-09T04:20:32.962Z,100.00
2023-04-09T04:21:34.833Z,100.00
2023-04-09T04:22:36.919Z,100.00
2023-04-09T04:23:38.789Z,100.00
2023-04-09T04:24:40.642Z,100.00
2023-04-09T04:25:42.627Z,100.00
2023-04-09T04:26:45.328Z,100.00
2023-04-09T04:27:47.247Z,100.00
2023-04-09T04:28:49.493Z,100.00
2023-04-09T04:29:51.615Z,100.00
2023-04-09T04:30:53.669Z,100.00
2023-04-09T04:31:55.586Z,100.00
2023-04-09T04:32:57.600Z,100.00
2023-04-09T04:33:59.534Z,100.00
2023-04-09T04:35:01.412Z,100.00
2023-04-09T04:36:09.203Z,100.00
2023-04-09T04:37:13.212Z,100.00
2023-04-09T04:38:17.112Z,100.00
2023-04-09T04:39:19.030Z,100.00
2023-04-09T04:40:21.310Z,100.00
2023-04-09T04:41:23.216Z,100.00
2023-04-09T04:42:25.125Z,100.00
2023-04-09T04:43:26.998Z,100.00
2023-04-09T04:44:28.863Z,100.00
2023-04-09T04:45:31.175Z,100.00
2023-04-09T04:46:33.389Z,100.00
2023-04-09T04:47:35.268Z,100.00
2023-04-09T04:48:37.253Z,100.00
2023-04-09T04:49:39.122Z,100.00
2023-04-09T04:50:41.182Z,100.00
2023-04-09T04:51:43.098Z,100.00
2023-04-09T04:52:44.959Z,100.00
2023-04-09T04:53:46.973Z,100.00
2023-04-09T04:54:49.559Z,100.00
2023-04-09T04:55:51.486Z,100.00
2023-04-09T04:56:53.715Z,100.00
2023-04-09T04:57:57.012Z,100.00
2023-04-09T04:59:00.136Z,100.00
2023-04-09T05:00:02.847Z,100.00
2023-04-09T05:01:05.160Z,100.00
2023-04-09T05:02:07.935Z,100.00
2023-04-09T05:03:10.284Z,100.00
2023-04-09T05:04:12.502Z,100.00
2023-04-09T05:05:14.615Z,100.00
2023-04-09T05:06:17.831Z,100.00
2023-04-09T05:07:19.736Z,100.00
2023-04-09T05:08:22.025Z,100.00
2023-04-09T05:09:24.346Z,100.00
2023-04-09T05:10:26.376Z,100.00
2023-04-09T05:11:28.264Z,100.00
2023-04-09T05:12:33.026Z,100.00
2023-04-09T05:13:35.090Z,100.00
2023-04-09T05:14:37.904Z,100.00
2023-04-09T05:15:40.886Z,100.00
2023-04-09T05:16:43.047Z,100.00
2023-04-09T05:17:45.028Z,100.00
2023-04-09T05:18:47.547Z,100.00
2023-04-09T05:19:53.215Z,100.00
2023-04-09T05:20:55.339Z,100.00
2023-04-09T05:21:57.270Z,100.00
2023-04-09T05:22:59.129Z,100.00
2023-04-09T05:24:01.000Z,100.00
2023-04-09T05:25:03.888Z,100.00
2023-04-09T05:26:07.405Z,100.00
2023-04-09T05:27:09.382Z,100.00
2023-04-09T05:28:11.409Z,99.99
2023-04-09T05:29:13.369Z,98.74
2023-04-09T05:30:15.606Z,97.72
2023-04-09T05:31:18.052Z,97.21
2023-04-09T05:32:20.151Z,96.40
2023-04-09T05:33:22.135Z,95.26
2023-04-09T05:34:24.157Z,94.15
2023-04-09T05:35:26.262Z,93.54
2023-04-09T05:36:28.398Z,94.15
2023-04-09T05:37:30.439Z,94.98
2023-04-09T05:38:32.667Z,95.76
2023-04-09T05:39:34.637Z,95.80
2023-04-09T05:40:36.622Z,95.69
2023-04-09T05:41:38.582Z,95.27
2023-04-09T05:42:40.728Z,94.85
2023-04-09T05:43:42.639Z,94.28
2023-04-09T05:44:44.627Z,93.52
2023-04-09T05:45:47.101Z,92.86
2023-04-09T05:46:49.144Z,92.33
2023-04-09T05:47:51.061Z,91.46
2023-04-09T05:48:53.366Z,90.35
2023-04-09T05:49:55.649Z,88.64
2023-04-09T05:50:59.719Z,87.57
2023-04-09T05:52:01.458Z,86.73
2023-04-09T05:53:03.310Z,85.49
2023-04-09T05:54:05.165Z,84.66
2023-04-09T05:55:08.098Z,84.46
2023-04-09T05:56:15.150Z,84.06
2023-04-09T05:57:17.188Z,82.89
2023-04-09T05:58:21.697Z,82.35
2023-04-09T05:59:23.881Z,81.87
2023-04-09T06:00:26.102Z,81.78
2023-04-09T06:01:28.177Z,83.37
2023-04-09T06:02:30.184Z,83.06
2023-04-09T06:03:32.331Z,83.84
2023-04-09T06:04:34.436Z,83.72
2023-04-09T06:05:36.401Z,82.80
2023-04-09T06:06:38.701Z,82.28
2023-04-09T06:07:40.673Z,81.46
2023-04-09T06:08:42.523Z,80.88
2023-04-09T06:09:44.390Z,80.34
2023-04-09T06:10:46.729Z,80.09
2023-04-09T06:11:48.589Z,79.75
2023-04-09T06:12:50.440Z,79.68
2023-04-09T06:13:53.049Z,78.51
2023-04-09T06:14:55.198Z,77.80
2023-04-09T06:15:57.058Z,77.81
2023-04-09T06:16:59.203Z,77.77
2023-04-09T06:18:01.154Z,77.40
2023-04-09T06:19:03.155Z,78.65
2023-04-09T06:20:06.515Z,77.66
2023-04-09T06:21:08.638Z,77.12
2023-04-09T06:22:10.919Z,76.78
2023-04-09T06:23:12.788Z,75.98
2023-04-09T06:24:14.643Z,75.58
2023-04-09T06:25:16.543Z,75.47
2023-04-09T06:26:18.696Z,75.37
2023-04-09T06:27:22.058Z,74.68
2023-04-09T06:28:24.275Z,74.11
2023-04-09T06:29:26.383Z,73.32
2023-04-09T06:30:29.096Z,73.56
2023-04-09T06:31:32.214Z,72.82
2023-04-09T06:32:46.825Z,72.65
2023-04-09T06:33:38.219Z,72.59
2023-04-09T06:34:40.090Z,71.37
2023-04-09T06:35:42.101Z,71.48
2023-04-09T06:36:44.178Z,72.38
2023-04-09T06:37:46.661Z,71.51
2023-04-09T06:38:49.971Z,70.34
2023-04-09T06:40:00.312Z,69.73
2023-04-09T06:40:55.971Z,70.23
2023-04-09T06:41:58.380Z,70.56
2023-04-09T06:43:00.269Z,70.73
2023-04-09T06:44:02.120Z,70.35
2023-04-09T06:45:05.429Z,70.54
2023-04-09T06:46:07.737Z,69.57
2023-04-09T06:47:09.861Z,69.44
2023-04-09T06:48:11.708Z,69.33
2023-04-09T06:49:13.608Z,69.37
2023-04-09T06:50:15.620Z,69.35
2023-04-09T06:51:17.573Z,68.89
2023-04-09T06:52:19.416Z,68.73
2023-04-09T06:53:21.291Z,69.46
2023-04-09T06:54:23.281Z,69.89
2023-04-09T06:55:25.229Z,69.86
2023-04-09T06:56:27.203Z,69.15
2023-04-09T06:57:29.132Z,69.74
2023-04-09T06:58:31.209Z,69.96
2023-04-09T06:59:33.066Z,69.86
2023-04-09T07:00:35.161Z,69.63
2023-04-09T07:01:39.998Z,70.11
2023-04-09T07:02:42.416Z,69.85
2023-04-09T07:03:45.580Z,69.88
2023-04-09T07:04:47.866Z,69.50
2023-04-09T07:05:49.946Z,70.09
2023-04-09T07:06:52.488Z,70.77
2023-04-09T07:07:54.395Z,70.18
2023-04-09T07:08:56.590Z,70.02
2023-04-09T07:09:58.449Z,69.71
2023-04-09T07:11:00.437Z,69.76
2023-04-09T07:12:02.465Z,70.06
2023-04-09T07:13:05.762Z,70.47
2023-04-09T07:14:07.762Z,70.03
2023-04-09T07:15:10.432Z,70.95
2023-04-09T07:16:12.877Z,70.32
2023-04-09T07:17:14.827Z,70.30
2023-04-09T07:18:17.692Z,70.28
2023-04-09T07:19:19.828Z,69.64
2023-04-09T07:20:22.123Z,69.00
2023-04-09T07:21:24.199Z,69.07
2023-04-09T07:22:27.872Z,69.15
2023-04-09T07:23:29.873Z,68.90
2023-04-09T07:24:31.763Z,68.63
2023-04-09T07:25:33.836Z,69.13
2023-04-09T07:26:36.209Z,69.53
2023-04-09T07:27:38.115Z,68.23
2023-04-09T07:28:41.299Z,67.24
2023-04-09T07:29:44.096Z,66.77
2023-04-09T07:30:46.920Z,66.64
2023-04-09T07:31:48.926Z,66.76
2023-04-09T07:32:51.154Z,67.10
2023-04-09T07:33:53.208Z,66.99
2023-04-09T07:34:56.011Z,67.01
2023-04-09T07:35:58.066Z,67.59
2023-04-09T07:37:00.173Z,67.87
2023-04-09T07:38:02.740Z,68.05
2023-04-09T07:39:04.815Z,67.17
2023-04-09T07:40:08.283Z,67.33
2023-04-09T07:41:11.777Z,67.04
2023-04-09T07:42:13.696Z,66.38
2023-04-09T07:43:15.687Z,66.89
2023-04-09T07:44:17.643Z,66.75
2023-04-09T07:45:19.527Z,66.17
2023-04-09T07:46:21.953Z,65.89
2023-04-09T07:47:24.353Z,65.01
2023-04-09T07:48:26.365Z,63.97
2023-04-09T07:49:28.236Z,63.77
2023-04-09T07:50:30.430Z,63.93
2023-04-09T07:51:33.396Z,63.54
2023-04-09T07:52:35.677Z,65.47
2023-04-09T07:53:37.713Z,64.56
2023-04-09T07:54:40.894Z,64.76
2023-04-09T07:55:43.309Z,64.16
2023-04-09T07:56:45.461Z,64.63
2023-04-09T07:57:47.381Z,63.13
2023-04-09T07:58:49.336Z,62.57
2023-04-09T07:59:52.840Z,61.95
2023-04-09T08:00:54.853Z,60.09
2023-04-09T08:01:57.398Z,59.81
2023-04-09T08:02:59.618Z,61.69
2023-04-09T08:04:01.832Z,60.28
2023-04-09T08:05:05.149Z,59.60
2023-04-09T08:06:07.541Z,58.72
2023-04-09T08:07:09.554Z,58.82
2023-04-09T08:08:11.585Z,58.88
2023-04-09T08:09:13.444Z,59.19
2023-04-09T08:10:15.598Z,59.91
2023-04-09T08:11:17.695Z,60.20
2023-04-09T08:12:19.569Z,59.78
2023-04-09T08:13:23.387Z,60.69
2023-04-09T08:14:25.276Z,61.20
2023-04-09T08:15:27.235Z,60.22
2023-04-09T08:16:29.857Z,60.59
2023-04-09T08:17:32.950Z,61.77
2023-04-09T08:18:34.971Z,61.69
2023-04-09T08:19:38.799Z,61.06
2023-04-09T08:20:41.455Z,61.26
2023-04-09T08:21:43.750Z,61.75
2023-04-09T08:22:46.182Z,62.07
2023-04-09T08:23:48.277Z,61.28
2023-04-09T08:24:51.926Z,61.43
2023-04-09T08:25:53.867Z,61.03
2023-04-09T08:26:56.825Z,60.50
2023-04-09T08:27:59.337Z,59.76
2023-04-09T08:29:01.328Z,60.00
2023-04-09T08:30:04.138Z,60.32
2023-04-09T08:31:10.372Z,60.21
2023-04-09T08:32:12.458Z,60.12
2023-04-09T08:33:16.762Z,60.32
2023-04-09T08:34:19.858Z,58.91
2023-04-09T08:35:21.749Z,57.80
2023-04-09T08:36:25.284Z,56.44
2023-04-09T08:37:27.333Z,56.81
2023-04-09T08:38:29.414Z,57.74
2023-04-09T08:39:31.363Z,58.68
2023-04-09T08:40:37.077Z,57.83
2023-04-09T08:41:42.341Z,57.12
2023-04-09T08:42:44.627Z,56.44
2023-04-09T08:44:52.150Z,57.93
2023-04-09T08:45:54.009Z,57.52
2023-04-09T08:46:58.476Z,56.58
2023-04-09T08:48:03.234Z,56.79
2023-04-09T08:49:07.328Z,56.15
2023-04-09T08:50:10.029Z,56.86
2023-04-09T08:51:18.036Z,57.02
2023-04-09T08:52:24.112Z,56.80
2023-04-09T08:53:27.264Z,58.03
2023-04-09T08:54:29.151Z,57.21
2023-04-09T08:55:32.351Z,57.34
2023-04-09T08:56:34.448Z,56.58
2023-04-09T08:57:38.114Z,56.25
2023-04-09T08:58:42.550Z,55.95
2023-04-09T08:59:44.493Z,56.26
2023-04-09T09:00:46.578Z,56.62
2023-04-09T09:01:48.537Z,56.40
2023-04-09T09:04:15.894Z,56.25
2023-04-09T09:05:21.676Z,55.96
2023-04-09T09:06:25.479Z,55.96
2023-04-09T09:07:28.355Z,56.05
2023-04-09T09:08:30.256Z,56.05
2023-04-09T09:09:34.512Z,56.90
2023-04-09T09:10:41.184Z,57.15
2023-04-09T09:11:46.826Z,56.01
2023-04-09T09:12:48.873Z,55.52
2023-04-09T09:15:28.580Z,55.89
2023-04-09T09:16:32.126Z,55.68
2023-04-09T09:17:37.889Z,54.93
2023-04-09T09:18:43.470Z,54.66
2023-04-09T09:19:45.634Z,54.59
2023-04-09T09:20:47.852Z,54.89
2023-04-09T09:22:00.988Z,54.81
2023-04-09T09:23:02.930Z,54.36
2023-04-09T09:24:16.430Z,54.93
2023-04-09T09:25:18.702Z,54.62
2023-04-09T09:26:23.217Z,55.26
2023-04-09T09:27:34.280Z,54.37
2023-04-09T09:28:36.458Z,54.66
2023-04-09T09:29:42.346Z,55.09
2023-04-09T09:30:47.251Z,54.93
2023-04-09T09:31:52.195Z,56.11
2023-04-09T09:32:58.098Z,56.13
2023-04-09T09:34:03.808Z,55.41
2023-04-09T09:35:07.409Z,55.01
2023-04-09T09:36:10.577Z,55.16
2023-04-09T09:37:26.496Z,55.37
2023-04-09T09:38:29.261Z,55.98
2023-04-09T09:39:43.663Z,56.70
2023-04-09T09:40:47.334Z,57.02
2023-04-09T09:41:53.086Z,58.26
2023-04-09T09:42:56.030Z,58.90
2023-04-09T09:43:57.940Z,58.24
2023-04-09T09:45:00.916Z,57.82
2023-04-09T09:46:04.102Z,57.74
2023-04-09T09:47:07.496Z,57.79
2023-04-09T09:48:12.632Z,56.84
2023-04-09T09:49:14.653Z,56.08
2023-04-09T09:50:17.424Z,56.78
2023-04-09T09:51:23.198Z,57.46
2023-04-09T09:52:25.830Z,57.27
2023-04-09T09:53:31.817Z,56.83
2023-04-09T09:54:40.198Z,57.18
2023-04-09T09:55:45.843Z,56.82
2023-04-09T09:56:51.784Z,56.78
2023-04-09T09:57:56.201Z,57.40
2023-04-09T09:59:22.535Z,57.08
2023-04-09T10:00:27.520Z,57.37
2023-04-09T10:01:29.792Z,57.16
2023-04-09T10:02:35.887Z,58.78
2023-04-09T10:03:39.573Z,59.04
2023-04-09T10:04:42.524Z,59.04
2023-04-09T10:05:44.865Z,58.88
2023-04-09T10:06:50.229Z,59.37
2023-04-09T10:09:07.393Z,59.38
2023-04-09T10:10:10.607Z,59.06
2023-04-09T10:11:12.475Z,59.88
2023-04-09T10:12:15.603Z,59.39
2023-04-09T10:13:33.710Z,59.92
2023-04-09T10:14:36.768Z,59.89
2023-04-09T10:15:39.622Z,59.41
2023-04-09T10:16:42.790Z,60.25
2023-04-09T10:17:44.857Z,59.05
2023-04-09T10:18:47.135Z,59.04
2023-04-09T10:21:25.493Z,60.49
2023-04-09T10:22:31.178Z,60.76
2023-04-09T10:23:42.270Z,60.56
2023-04-09T10:24:45.153Z,61.03
2023-04-09T10:25:47.436Z,61.24
2023-04-09T10:26:53.453Z,62.15
2023-04-09T10:28:02.194Z,61.58
2023-04-09T10:29:14.932Z,61.42
2023-04-09T10:30:34.724Z,61.55
2023-04-09T10:31:57.564Z,60.65
2023-04-09T10:33:13.245Z,61.01
2023-04-09T10:34:18.042Z,60.88
2023-04-09T10:35:25.270Z,60.77
2023-04-09T10:36:30.081Z,61.07
2023-04-09T10:37:31.982Z,61.53
2023-04-09T10:38:36.740Z,62.12
2023-04-09T10:39:41.727Z,61.38
2023-04-09T10:40:48.336Z,61.38
2023-04-09T10:41:52.259Z,61.27
2023-04-09T10:42:55.713Z,61.43
2023-04-09T10:43:57.617Z,60.26
2023-04-09T10:45:09.649Z,60.46
2023-04-09T10:46:35.261Z,60.89
2023-04-09T10:47:40.343Z,61.75
2023-04-09T10:48:42.424Z,60.89
2023-04-09T10:49:44.273Z,60.84
2023-04-09T10:50:50.118Z,60.90
2023-04-09T10:52:09.570Z,61.17
2023-04-09T10:53:23.085Z,61.33
2023-04-09T10:54:38.200Z,61.68
2023-04-09T10:55:44.569Z,61.23
2023-04-09T10:57:10.340Z,60.72
2023-04-09T10:58:13.486Z,61.20
2023-04-09T10:59:15.939Z,60.09
2023-04-09T11:00:17.912Z,59.65
2023-04-09T11:01:23.747Z,59.58
2023-04-09T11:02:30.016Z,59.46
2023-04-09T11:03:37.058Z,59.34
2023-04-09T11:05:58.999Z,58.57
2023-04-09T11:07:04.854Z,58.05
2023-04-09T11:08:11.650Z,57.37
2023-04-09T11:09:13.946Z,56.62
2023-04-09T11:10:16.046Z,56.26
2023-04-09T11:11:17.925Z,55.41
2023-04-09T11:12:19.869Z,54.92
2023-04-09T11:13:21.759Z,55.78
2023-04-09T11:14:23.707Z,56.33
2023-04-09T11:15:25.665Z,56.50
2023-04-09T11:16:31.565Z,55.69
2023-04-09T11:17:37.164Z,54.60
2023-04-09T11:18:40.622Z,54.41
2023-04-09T11:19:43.905Z,55.04
2023-04-09T11:20:46.109Z,56.21
2023-04-09T11:21:48.334Z,56.25
2023-04-09T11:22:54.897Z,55.71
2023-04-09T11:23:56.849Z,54.42
2023-04-09T11:24:58.704Z,55.40
2023-04-09T11:26:00.778Z,54.99
2023-04-09T11:27:02.668Z,55.43
2023-04-09T11:28:07.013Z,55.58
2023-04-09T11:29:10.004Z,55.10
2023-04-09T11:30:12.599Z,54.55
2023-04-09T11:31:14.756Z,54.70
2023-04-09T11:32:16.707Z,55.35
2023-04-09T11:33:20.283Z,55.54
2023-04-09T11:34:26.368Z,55.87
2023-04-09T11:35:30.205Z,55.69
2023-04-09T11:36:34.245Z,55.64
2023-04-09T11:37:36.244Z,55.52
2023-04-09T11:38:38.123Z,57.20
2023-04-09T11:39:42.032Z,57.01
2023-04-09T11:40:44.794Z,57.75
2023-04-09T11:41:46.748Z,57.19
2023-04-09T11:42:51.447Z,56.91
2023-04-09T11:43:53.453Z,56.21
2023-04-09T11:44:55.576Z,55.79
2023-04-09T11:45:58.853Z,55.83
2023-04-09T11:47:01.662Z,56.14
2023-04-09T11:48:04.397Z,56.61
2023-04-09T11:49:07.464Z,57.19
2023-04-09T11:50:11.206Z,57.19
2023-04-09T11:51:14.497Z,56.90
2023-04-09T11:52:16.840Z,57.00
2023-04-09T11:53:20.089Z,57.04
2023-04-09T11:54:24.270Z,57.44
2023-04-09T11:55:28.841Z,57.45
2023-04-09T11:56:32.118Z,56.44
2023-04-09T11:57:46.222Z,56.22
2023-04-09T11:58:48.474Z,55.46
2023-04-09T11:59:50.450Z,55.06
2023-04-09T12:00:59.382Z,55.68
2023-04-09T12:02:03.703Z,55.79
2023-04-09T12:03:05.947Z,55.97
2023-04-09T12:04:08.492Z,56.45
2023-04-09T12:05:12.935Z,56.17
2023-04-09T12:06:18.809Z,56.46
2023-04-09T12:07:20.751Z,56.56
2023-04-09T12:08:23.219Z,56.17
2023-04-09T12:09:25.210Z,55.76
2023-04-09T12:10:30.272Z,56.23
2023-04-09T12:11:32.278Z,56.37
2023-04-09T12:12:46.133Z,56.14
2023-04-09T12:13:48.040Z,56.09
2023-04-09T12:14:50.250Z,56.43
2023-04-09T12:15:53.029Z,56.31
2023-04-09T12:16:55.496Z,56.83
2023-04-09T12:17:58.293Z,57.31
2023-04-09T12:19:09.316Z,57.32
2023-04-09T12:20:12.081Z,57.28
2023-04-09T12:21:14.007Z,57.36
2023-04-09T12:22:16.928Z,56.80
2023-04-09T12:23:18.974Z,56.38
2023-04-09T12:24:24.703Z,56.37
2023-04-09T12:25:27.147Z,56.71
2023-04-09T12:26:30.851Z,56.63
2023-04-09T12:27:33.928Z,56.22
2023-04-09T12:28:35.993Z,56.45
2023-04-09T12:29:37.961Z,56.33
2023-04-09T12:30:40.631Z,56.05
2023-04-09T12:31:43.331Z,56.01
2023-04-09T12:32:45.551Z,56.16
2023-04-09T12:33:47.669Z,56.12
2023-04-09T12:34:49.647Z,56.15
2023-04-09T12:35:51.646Z,55.97
2023-04-09T12:36:53.880Z,56.18
2023-04-09T12:37:55.994Z,55.35
2023-04-09T12:38:59.825Z,55.00
2023-04-09T12:40:03.068Z,54.78
2023-04-09T12:41:05.068Z,54.94
2023-04-09T12:42:07.018Z,54.91
2023-04-09T12:43:09.029Z,54.49
2023-04-09T12:44:11.052Z,54.93
2023-04-09T12:45:15.547Z,54.24
2023-04-09T12:46:18.746Z,54.05
2023-04-09T12:47:20.772Z,54.05
2023-04-09T12:48:22.651Z,53.89
2023-04-09T12:49:24.525Z,54.44
2023-04-09T12:50:26.870Z,54.72
2023-04-09T12:51:28.994Z,54.77
2023-04-09T12:52:31.059Z,54.50
2023-04-09T12:53:32.932Z,54.83
2023-04-09T12:54:34.803Z,55.09
2023-04-09T12:55:36.697Z,55.53
2023-04-09T12:56:40.282Z,55.75
2023-04-09T12:57:45.501Z,55.94
2023-04-09T12:58:47.428Z,56.25
2023-04-09T12:59:49.473Z,56.01
2023-04-09T13:00:51.467Z,55.95
2023-04-09T13:01:53.527Z,56.11
2023-04-09T13:02:55.767Z,56.17
2023-04-09T13:03:58.414Z,56.21
2023-04-09T13:05:01.408Z,56.25
2023-04-09T13:06:05.548Z,56.06
2023-04-09T13:07:07.999Z,56.48
2023-04-09T13:08:10.584Z,56.42
2023-04-09T13:09:12.481Z,56.62
2023-04-09T13:10:15.132Z,56.72
2023-04-09T13:11:17.121Z,57.20
2023-04-09T13:12:19.613Z,57.38
2023-04-09T13:13:21.539Z,57.62
2023-04-09T13:14:23.584Z,58.10
2023-04-09T13:15:25.503Z,59.16
2023-04-09T13:16:27.596Z,60.03
2023-04-09T13:17:29.564Z,60.34
2023-04-09T13:18:31.738Z,60.81
2023-04-09T13:19:33.693Z,61.13
2023-04-09T13:20:36.111Z,61.16
2023-04-09T13:21:38.916Z,61.64
2023-04-09T13:22:40.821Z,62.08
2023-04-09T13:23:42.672Z,62.49
2023-04-09T13:24:44.628Z,62.81
2023-04-09T13:25:46.540Z,63.47
2023-04-09T13:26:48.836Z,64.37
2023-04-09T13:27:51.263Z,65.03
2023-04-09T13:28:53.376Z,65.15
2023-04-09T13:29:56.788Z,65.67
2023-04-09T13:30:58.787Z,65.76
2023-04-09T13:32:00.849Z,71.76
2023-04-09T13:33:02.990Z,76.25
2023-04-09T13:34:05.385Z,80.66
2023-04-09T13:35:08.564Z,82.35
2023-04-09T13:36:10.582Z,83.81
2023-04-09T13:37:12.535Z,84.76